createdAt,value
2018-11-04T00:01:35.191Z,20.30
2018-11-04T00:04:02.909Z,20.30
2018-11-04T00:06:30.346Z,21.13
2018-11-04T00:08:57.894Z,19.47
2018-11-04T00:11:25.316Z,21.60
2018-11-04T00:13:58.870Z,20.27
2018-11-04T00:16:26.256Z,20.87
2018-11-04T00:18:53.836Z,21.00
2018-11-04T00:21:21.237Z,20.13
2018-11-04T00:23:48.726Z,19.20
2018-11-04T00:26:16.073Z,20.37
2018-11-04T00:28:43.501Z,20.37
2018-11-04T00:31:13.773Z,21.03
2018-11-04T00:33:41.166Z,22.97
2018-11-04T00:36:08.656Z,21.23
2018-11-04T00:38:36.117Z,20.00
2018-11-04T00:41:09.741Z,20.10
2018-11-04T00:43:38.016Z,21.03
2018-11-04T00:46:07.283Z,20.13
2018-11-04T00:48:34.901Z,21.27
2018-11-04T00:51:03.398Z,20.90
2018-11-04T00:53:30.857Z,20.23
2018-11-04T00:57:28.198Z,21.20
2018-11-04T01:00:02.038Z,19.07
2018-11-04T01:02:30.601Z,19.03
2018-11-04T01:05:02.183Z,19.67
2018-11-04T01:07:36.157Z,20.03
2018-11-04T01:10:04.125Z,21.67
2018-11-04T01:12:31.544Z,20.07
2018-11-04T01:14:59.899Z,20.80
2018-11-04T01:17:28.245Z,19.83
2018-11-04T01:19:55.646Z,20.67
2018-11-04T01:22:23.990Z,22.07
2018-11-04T01:24:53.687Z,20.60
2018-11-04T01:27:22.011Z,20.40
2018-11-04T01:29:50.450Z,21.17
2018-11-04T01:32:17.930Z,20.27
2018-11-04T01:34:45.378Z,22.10
2018-11-04T01:37:19.017Z,21.50
2018-11-04T01:39:46.425Z,22.53
2018-11-04T01:42:45.059Z,21.27
2018-11-04T01:45:12.461Z,21.47
2018-11-04T01:47:45.957Z,21.30
2018-11-04T01:50:14.025Z,20.80
2018-11-04T01:52:41.404Z,21.57
2018-11-04T01:55:09.639Z,21.00
2018-11-04T01:57:37.283Z,21.80
2018-11-04T02:00:08.550Z,23.03
2018-11-04T02:02:35.923Z,23.37
2018-11-04T02:05:03.397Z,21.53
2018-11-04T02:07:31.857Z,21.33
2018-11-04T02:09:59.273Z,22.43
2018-11-04T02:12:26.781Z,21.63
2018-11-04T02:14:54.942Z,21.03
2018-11-04T02:17:23.247Z,20.63
2018-11-04T02:19:50.645Z,20.73
2018-11-04T02:22:24.318Z,19.57
2018-11-04T02:24:51.697Z,20.13
2018-11-04T02:27:21.006Z,20.03
2018-11-04T02:29:48.401Z,19.80
2018-11-04T02:32:15.847Z,20.83
2018-11-04T02:34:43.305Z,21.13
2018-11-04T02:37:11.551Z,22.10
2018-11-04T02:39:39.025Z,21.23
2018-11-04T02:42:06.499Z,20.20
2018-11-04T02:44:40.212Z,21.03
2018-11-04T02:47:07.749Z,23.07
2018-11-04T02:49:35.192Z,21.00
2018-11-04T02:52:02.614Z,21.90
2018-11-04T02:54:31.133Z,21.13
2018-11-04T02:56:58.774Z,22.10
2018-11-04T02:59:26.186Z,22.33
2018-11-04T03:01:54.619Z,19.77
2018-11-04T03:04:28.360Z,20.03
2018-11-04T03:06:55.853Z,21.70
2018-11-04T03:09:23.410Z,19.47
2018-11-04T03:11:50.848Z,20.67
2018-11-04T03:14:18.275Z,21.87
2018-11-04T03:16:45.679Z,22.20
2018-11-04T03:19:13.120Z,20.90
2018-11-04T03:21:41.593Z,22.07
2018-11-04T03:24:09.022Z,23.00
2018-11-04T03:26:37.278Z,22.93
2018-11-04T03:29:04.750Z,23.33
2018-11-04T03:31:32.920Z,24.67
2018-11-04T03:34:01.448Z,22.80
2018-11-04T03:36:31.952Z,23.50
2018-11-04T03:38:59.345Z,23.50
2018-11-04T03:41:27.899Z,23.63
2018-11-04T03:43:55.292Z,23.47
2018-11-04T03:46:22.730Z,22.53
2018-11-04T03:48:50.143Z,23.03
2018-11-04T03:51:17.781Z,22.83
2018-11-04T03:55:14.806Z,22.73
2018-11-04T03:57:42.269Z,23.37
2018-11-04T04:00:11.934Z,24.27
2018-11-04T04:02:39.887Z,24.13
2018-11-04T04:05:08.138Z,24.13
2018-11-04T04:07:35.551Z,25.27
2018-11-04T04:10:03.234Z,24.13
2018-11-04T04:12:30.738Z,22.53
2018-11-04T04:14:58.966Z,23.87
2018-11-04T04:17:26.346Z,23.33
2018-11-04T04:19:53.718Z,23.80
2018-11-04T04:22:21.100Z,22.87
2018-11-04T04:24:48.533Z,23.77
2018-11-04T04:27:15.996Z,23.57
2018-11-04T04:29:49.749Z,21.87
2018-11-04T04:32:23.405Z,22.00
2018-11-04T04:34:56.983Z,21.40
2018-11-04T04:37:24.434Z,22.60
2018-11-04T04:39:51.967Z,23.03
2018-11-04T04:42:19.377Z,23.57
2018-11-04T04:44:48.298Z,24.33
2018-11-04T04:47:15.733Z,24.13
2018-11-04T04:49:43.174Z,23.00
2018-11-04T04:52:10.606Z,21.63
2018-11-04T04:54:38.066Z,25.00
2018-11-04T04:57:05.454Z,22.87
2018-11-04T04:59:32.895Z,22.47
2018-11-04T05:02:00.253Z,23.80
2018-11-04T05:04:27.753Z,22.47
2018-11-04T05:06:55.202Z,24.50
2018-11-04T05:09:24.675Z,23.13
2018-11-04T05:11:53.971Z,23.20
2018-11-04T05:14:21.514Z,22.67
2018-11-04T05:16:48.985Z,23.53
2018-11-04T05:19:16.502Z,24.57
2018-11-04T05:21:44.877Z,23.70
2018-11-04T05:24:12.255Z,22.07
2018-11-04T05:26:40.401Z,24.87
2018-11-04T05:29:07.761Z,25.27
2018-11-04T05:31:35.146Z,23.83
2018-11-04T05:34:02.519Z,23.17
2018-11-04T05:36:30.977Z,23.30
2018-11-04T05:38:58.382Z,23.10
2018-11-04T05:41:25.757Z,21.97
2018-11-04T05:43:53.085Z,21.57
2018-11-04T05:46:20.510Z,22.03
2018-11-04T05:48:48.826Z,22.37
2018-11-04T05:51:16.302Z,21.30
2018-11-04T05:53:43.629Z,24.13
2018-11-04T05:56:11.009Z,23.37
2018-11-04T05:58:38.341Z,23.53
2018-11-04T06:01:06.332Z,24.53
2018-11-04T06:03:33.877Z,22.80
2018-11-04T06:06:01.297Z,22.40
2018-11-04T06:08:28.708Z,23.20
2018-11-04T06:10:56.125Z,21.93
2018-11-04T06:13:23.498Z,23.23
2018-11-04T06:15:50.925Z,22.77
2018-11-04T06:18:19.134Z,23.10
2018-11-04T06:20:46.504Z,21.77
2018-11-04T06:23:14.671Z,22.00
2018-11-04T06:25:42.018Z,22.83
2018-11-04T06:28:09.405Z,20.67
2018-11-04T06:30:42.898Z,22.50
2018-11-04T06:33:16.653Z,22.53
2018-11-04T06:35:44.088Z,24.77
2018-11-04T06:38:17.834Z,24.43
2018-11-04T06:40:45.271Z,23.63
2018-11-04T06:43:19.216Z,24.47
2018-11-04T06:45:46.592Z,24.40
2018-11-04T06:48:13.999Z,25.33
2018-11-04T06:50:41.401Z,23.23
2018-11-04T06:53:08.870Z,22.17
2018-11-04T06:55:36.659Z,21.70
2018-11-04T06:58:05.235Z,22.40
2018-11-04T07:00:39.282Z,22.37
2018-11-04T07:03:08.653Z,22.00
2018-11-04T07:05:42.360Z,22.90
2018-11-04T07:08:09.756Z,23.17
2018-11-04T07:10:43.301Z,21.63
2018-11-04T07:13:11.614Z,21.73
2018-11-04T07:15:39.057Z,23.33
2018-11-04T07:18:06.485Z,22.40
2018-11-04T07:20:33.921Z,22.57
2018-11-04T07:23:01.395Z,23.47
2018-11-04T07:25:29.646Z,22.50
2018-11-04T07:28:03.530Z,23.13
2018-11-04T07:30:30.909Z,22.07
2018-11-04T07:32:58.326Z,23.70
2018-11-04T07:35:25.733Z,24.23
2018-11-04T07:37:53.797Z,23.97
2018-11-04T07:40:22.140Z,23.80
2018-11-04T07:42:49.609Z,23.57
2018-11-04T07:45:17.042Z,24.40
2018-11-04T07:47:44.610Z,23.00
2018-11-04T07:50:13.489Z,22.87
2018-11-04T07:52:42.742Z,25.07
2018-11-04T07:55:10.177Z,25.17
2018-11-04T07:57:39.589Z,26.30
2018-11-04T08:00:09.086Z,25.17
2018-11-04T08:02:36.559Z,26.03
2018-11-04T08:05:05.193Z,29.73
2018-11-04T08:07:32.604Z,28.40
2018-11-04T08:10:07.793Z,30.83
2018-11-04T08:12:35.262Z,27.60
2018-11-04T08:15:02.692Z,25.83
2018-11-04T08:17:36.562Z,28.27
2018-11-04T08:20:04.396Z,28.23
2018-11-04T08:22:31.885Z,30.17
2018-11-04T08:25:00.947Z,30.40
2018-11-04T08:27:28.472Z,30.93
2018-11-04T08:30:02.653Z,28.10
2018-11-04T08:32:30.214Z,27.37
2018-11-04T08:35:04.471Z,25.60
2018-11-04T08:37:32.035Z,24.67
2018-11-04T08:39:59.621Z,25.93
2018-11-04T08:42:27.017Z,23.80
2018-11-04T08:44:55.381Z,23.43
2018-11-04T08:47:22.929Z,23.73
2018-11-04T08:49:56.998Z,24.37
2018-11-04T08:52:24.558Z,28.37
2018-11-04T08:54:51.896Z,26.77
2018-11-04T08:57:19.442Z,29.07
2018-11-04T08:59:52.915Z,26.77
2018-11-04T09:02:20.345Z,28.97
2018-11-04T09:04:53.834Z,28.33
2018-11-04T09:07:27.414Z,29.13
2018-11-04T09:09:54.822Z,26.83
2018-11-04T09:12:27.294Z,28.40
2018-11-04T09:14:54.706Z,25.33
2018-11-04T09:17:23.251Z,27.60
2018-11-04T09:19:50.776Z,23.77
2018-11-04T09:22:18.400Z,24.00
2018-11-04T09:24:51.938Z,26.40
2018-11-04T09:27:25.918Z,26.33
2018-11-04T09:29:53.281Z,26.47
2018-11-04T09:32:20.737Z,26.07
2018-11-04T09:34:48.247Z,24.27
2018-11-04T09:37:19.578Z,26.67
2018-11-04T09:39:53.107Z,27.93
2018-11-04T09:42:27.214Z,26.87
2018-11-04T09:45:00.682Z,24.43
2018-11-04T09:47:34.329Z,25.63
2018-11-04T09:50:01.857Z,26.63
2018-11-04T09:52:35.358Z,29.23
2018-11-04T09:55:10.867Z,29.77
2018-11-04T09:57:39.347Z,26.13
2018-11-04T10:00:09.935Z,29.23
2018-11-04T10:02:37.464Z,30.77
2018-11-04T10:05:06.301Z,28.73
2018-11-04T10:07:33.694Z,26.53
2018-11-04T10:10:01.833Z,28.20
2018-11-04T10:12:35.733Z,28.07
2018-11-04T10:15:03.972Z,30.43
2018-11-04T10:17:31.361Z,29.97
2018-11-04T10:19:59.090Z,28.33
2018-11-04T10:22:27.056Z,29.43
2018-11-04T10:25:00.765Z,27.90
2018-11-04T10:27:29.140Z,27.67
2018-11-04T10:29:57.131Z,29.87
2018-11-04T10:32:30.857Z,28.23
2018-11-04T10:35:04.661Z,29.10
2018-11-04T10:37:33.077Z,27.23
2018-11-04T10:40:00.592Z,29.40
2018-11-04T10:42:28.977Z,27.33
2018-11-04T10:44:56.179Z,29.87
2018-11-04T10:47:23.667Z,29.33
2018-11-04T10:49:51.072Z,30.53
2018-11-04T10:52:18.407Z,28.87
2018-11-04T10:54:52.021Z,28.77
2018-11-04T10:57:19.364Z,28.77
2018-11-04T10:59:46.871Z,28.67
2018-11-04T11:02:20.485Z,27.67
2018-11-04T11:04:47.905Z,26.40
2018-11-04T11:07:21.461Z,28.43
2018-11-04T11:09:48.856Z,27.93
2018-11-04T11:12:16.536Z,28.30
2018-11-04T11:14:43.949Z,27.10
2018-11-04T11:17:11.289Z,27.60
2018-11-04T11:19:39.818Z,27.40
2018-11-04T11:22:07.243Z,27.00
2018-11-04T11:24:34.706Z,26.40
2018-11-04T11:27:02.930Z,25.70
2018-11-04T11:29:30.338Z,25.67
2018-11-04T11:32:03.885Z,26.63
2018-11-04T11:34:32.185Z,25.57
2018-11-04T11:36:59.533Z,25.03
2018-11-04T11:39:27.708Z,32.67
2018-11-04T11:41:55.199Z,27.93
2018-11-04T11:44:24.038Z,26.90
2018-11-04T11:46:51.509Z,29.53
2018-11-04T11:49:20.023Z,30.03
2018-11-04T11:51:49.498Z,29.83
2018-11-04T11:54:16.965Z,27.93
2018-11-04T11:56:44.412Z,26.10
2018-11-04T11:59:11.936Z,28.67
2018-11-04T12:01:40.187Z,28.83
2018-11-04T12:04:13.838Z,25.10
2018-11-04T12:06:41.833Z,25.67
2018-11-04T12:09:09.401Z,26.63
2018-11-04T12:11:37.083Z,25.90
2018-11-04T12:14:10.821Z,25.20
2018-11-04T12:16:39.125Z,25.73
2018-11-04T12:19:12.928Z,26.67
2018-11-04T12:21:46.656Z,25.80
2018-11-04T12:24:21.434Z,25.77
2018-11-04T12:26:48.909Z,26.80
2018-11-04T12:29:16.339Z,25.70
2018-11-04T12:31:43.800Z,26.53
2018-11-04T12:34:12.121Z,26.63
2018-11-04T12:36:45.801Z,26.30
2018-11-04T12:39:19.478Z,27.10
2018-11-04T12:41:46.894Z,26.00
2018-11-04T12:44:14.449Z,27.27
2018-11-04T12:46:42.944Z,26.33
2018-11-04T12:49:10.976Z,25.07
2018-11-04T12:51:44.590Z,25.73
2018-11-04T12:54:18.151Z,26.37
2018-11-04T12:56:51.657Z,26.30
2018-11-04T12:59:18.985Z,26.30
2018-11-04T13:01:47.470Z,26.83
2018-11-04T13:04:14.877Z,27.27
2018-11-04T13:06:42.352Z,25.33
2018-11-04T13:09:09.894Z,26.07
2018-11-04T13:11:43.614Z,26.17
2018-11-04T13:14:11.957Z,26.37
2018-11-04T13:16:39.493Z,27.97
2018-11-04T13:19:07.729Z,27.73
2018-11-04T13:21:41.529Z,27.87
2018-11-04T13:24:08.940Z,27.63
2018-11-04T13:26:36.465Z,26.33
2018-11-04T13:29:04.209Z,27.97
2018-11-04T13:31:31.606Z,26.80
2018-11-04T13:33:59.135Z,27.57
2018-11-04T13:36:26.502Z,26.53
2018-11-04T13:38:54.750Z,28.47
2018-11-04T13:41:22.984Z,26.13
2018-11-04T13:43:50.789Z,26.00
2018-11-04T13:46:19.213Z,27.63
2018-11-04T13:48:46.879Z,27.03
2018-11-04T13:51:14.405Z,27.67
2018-11-04T13:53:42.803Z,27.93
2018-11-04T13:56:19.037Z,26.37
2018-11-04T13:58:47.221Z,26.60
2018-11-04T14:01:21.098Z,26.57
2018-11-04T14:03:48.585Z,25.20
2018-11-04T14:06:22.274Z,31.50
2018-11-04T14:08:49.807Z,30.70
2018-11-04T14:11:23.441Z,30.03
2018-11-04T14:13:52.561Z,30.27
2018-11-04T14:16:26.212Z,46.73
2018-11-04T14:18:59.845Z,28.70
2018-11-04T14:21:28.046Z,28.00
2018-11-04T14:24:01.649Z,27.90
2018-11-04T14:26:35.338Z,31.50
2018-11-04T14:29:02.898Z,28.60
2018-11-04T14:31:36.635Z,29.33
2018-11-04T14:34:04.979Z,29.07
2018-11-04T14:36:32.449Z,29.37
2018-11-04T14:38:59.842Z,29.40
2018-11-04T14:41:33.669Z,28.47
2018-11-04T14:46:50.118Z,29.10
2018-11-04T14:49:18.871Z,28.67
2018-11-04T14:51:46.613Z,29.33
2018-11-04T14:54:14.590Z,29.17
2018-11-04T14:56:48.695Z,28.77
2018-11-04T14:59:16.298Z,30.27
2018-11-04T15:01:43.733Z,28.37
2018-11-04T15:04:17.197Z,28.90
2018-11-04T15:06:45.536Z,30.53
2018-11-04T15:09:12.885Z,30.23
2018-11-04T15:11:40.358Z,30.17
2018-11-04T15:14:07.753Z,30.83
2018-11-04T15:16:41.457Z,29.00
2018-11-04T15:19:15.325Z,28.93
2018-11-04T15:21:43.429Z,30.53
2018-11-04T15:24:11.105Z,29.87
2018-11-04T15:26:38.618Z,30.03
2018-11-04T15:29:06.029Z,30.10
2018-11-04T15:31:34.310Z,31.07
2018-11-04T15:34:02.632Z,30.27
2018-11-04T15:36:30.706Z,31.13
2018-11-04T15:39:07.533Z,32.33
2018-11-04T15:41:41.338Z,30.60
2018-11-04T15:44:14.924Z,31.63
2018-11-04T15:46:42.316Z,31.30
2018-11-04T15:49:10.025Z,38.93
2018-11-04T15:51:43.524Z,38.77
2018-11-04T15:54:10.963Z,36.00
2018-11-04T15:56:38.325Z,34.23
2018-11-04T15:59:05.799Z,32.83
2018-11-04T16:01:33.177Z,32.90
2018-11-04T16:04:06.794Z,32.60
2018-11-04T16:06:36.177Z,34.53
2018-11-04T16:09:06.417Z,32.90
2018-11-04T16:11:33.782Z,35.70
2018-11-04T16:14:01.178Z,34.90
2018-11-04T16:16:30.402Z,36.20
2018-11-04T16:18:57.875Z,37.20
2018-11-04T16:21:26.485Z,37.67
2018-11-04T16:23:54.752Z,36.37
2018-11-04T16:26:22.226Z,34.80
2018-11-04T16:28:49.678Z,34.70
2018-11-04T16:31:17.012Z,35.53
2018-11-04T16:33:44.401Z,37.37
2018-11-04T16:36:18.051Z,38.37
2018-11-04T16:38:51.662Z,42.13
2018-11-04T16:41:25.312Z,40.57
2018-11-04T16:43:58.996Z,40.77
2018-11-04T16:46:26.354Z,42.63
2018-11-04T16:48:53.721Z,40.60
2018-11-04T16:51:21.121Z,37.77
2018-11-04T16:53:54.619Z,40.53
2018-11-04T16:56:22.054Z,38.57
2018-11-04T16:58:50.586Z,38.80
2018-11-04T17:01:18.805Z,39.07
2018-11-04T17:03:52.415Z,36.37
2018-11-04T17:06:19.798Z,36.37
2018-11-04T17:08:53.437Z,37.53
2018-11-04T17:11:20.877Z,40.03
2018-11-04T17:13:48.237Z,37.80
2018-11-04T17:16:15.733Z,36.47
2018-11-04T17:18:43.101Z,35.50
2018-11-04T17:21:11.598Z,35.97
2018-11-04T17:23:45.152Z,34.77
2018-11-04T17:26:18.752Z,34.20
2018-11-04T17:28:46.110Z,35.97
2018-11-04T17:31:13.490Z,36.17
2018-11-04T17:33:46.941Z,32.73
2018-11-04T17:36:14.432Z,34.03
2018-11-04T17:38:48.087Z,36.77
2018-11-04T17:41:15.456Z,39.77
2018-11-04T17:43:49.009Z,38.40
2018-11-04T17:46:16.388Z,35.17
2018-11-04T17:48:50.122Z,34.47
2018-11-04T17:51:17.594Z,35.43
2018-11-04T17:53:51.267Z,35.70
2018-11-04T17:56:19.567Z,37.23
2018-11-04T17:58:46.973Z,34.77
2018-11-04T18:01:14.374Z,34.97
2018-11-04T18:03:42.278Z,36.30
2018-11-04T18:06:09.688Z,35.57
2018-11-04T18:08:43.190Z,33.73
2018-11-04T18:11:16.643Z,35.07
2018-11-04T18:13:50.466Z,35.57
2018-11-04T18:16:23.885Z,35.87
2018-11-04T18:18:57.590Z,35.20
2018-11-04T18:21:25.015Z,36.37
2018-11-04T18:23:52.525Z,36.07
2018-11-04T18:26:20.873Z,36.67
2018-11-04T18:28:48.178Z,37.17
2018-11-04T18:31:15.553Z,37.20
2018-11-04T18:33:43.973Z,38.13
2018-11-04T18:36:11.353Z,35.10
2018-11-04T18:38:45.052Z,34.03
2018-11-04T18:41:19.782Z,35.10
2018-11-04T18:43:47.416Z,36.60
2018-11-04T18:46:14.838Z,37.57
2018-11-04T18:48:48.475Z,36.90
2018-11-04T18:51:15.835Z,34.60
2018-11-04T18:53:43.217Z,36.30
2018-11-04T18:56:10.589Z,36.77
2018-11-04T18:58:44.158Z,33.93
2018-11-04T19:01:11.526Z,36.57
2018-11-04T19:03:38.902Z,36.87
2018-11-04T19:06:06.264Z,39.20
2018-11-04T19:08:40.354Z,37.73
2018-11-04T19:11:14.095Z,37.03
2018-11-04T19:13:47.742Z,38.37
2018-11-04T19:16:15.938Z,38.27
2018-11-04T19:18:44.151Z,37.83
2018-11-04T19:21:12.325Z,36.40
2018-11-04T19:23:39.793Z,37.80
2018-11-04T19:26:08.197Z,35.70
2018-11-04T19:28:41.752Z,36.77
2018-11-04T19:31:10.985Z,36.73
2018-11-04T19:33:44.378Z,35.20
2018-11-04T19:36:17.929Z,36.23
2018-11-04T19:38:45.317Z,34.53
2018-11-04T19:41:12.906Z,34.80
2018-11-04T19:43:40.478Z,36.20
2018-11-04T19:46:12.028Z,36.03
2018-11-04T19:48:39.616Z,38.17
2018-11-04T19:51:13.335Z,40.03
2018-11-04T19:53:40.632Z,42.47
2018-11-04T19:56:08.325Z,41.43
2018-11-04T19:58:36.994Z,41.03
2018-11-04T20:01:04.910Z,47.90
2018-11-04T20:03:32.323Z,39.83
2018-11-04T20:05:59.940Z,44.93
2018-11-04T20:08:29.424Z,42.90
2018-11-04T20:10:56.964Z,40.63
2018-11-04T20:13:30.130Z,45.93
2018-11-04T20:16:03.594Z,41.57
2018-11-04T20:18:36.791Z,39.97
2018-11-04T20:21:05.129Z,40.07
2018-11-04T20:23:33.721Z,38.87
2018-11-04T20:26:03.011Z,37.17
2018-11-04T20:28:30.461Z,36.90
2018-11-04T20:30:57.901Z,35.97
2018-11-04T20:33:31.587Z,35.60
2018-11-04T20:35:59.014Z,35.80
2018-11-04T20:40:38.265Z,34.70
2018-11-04T20:43:05.638Z,36.00
2018-11-04T20:45:33.033Z,35.67
2018-11-04T20:48:06.256Z,36.10
2018-11-04T20:50:39.509Z,35.27
2018-11-04T20:53:07.041Z,35.73
2018-11-04T20:55:40.992Z,36.30
2018-11-04T20:58:08.476Z,32.50
2018-11-04T21:00:35.819Z,31.53
2018-11-04T21:03:03.170Z,32.70
2018-11-04T21:05:30.644Z,34.53
2018-11-04T21:07:58.110Z,32.93
2018-11-04T21:10:31.716Z,33.17
2018-11-04T21:12:59.895Z,32.83
2018-11-04T21:15:27.315Z,34.73
2018-11-04T21:18:00.838Z,33.20
2018-11-04T21:20:28.177Z,32.30
2018-11-04T21:22:56.397Z,31.70
2018-11-04T21:25:23.834Z,33.50
2018-11-04T21:27:57.480Z,33.23
2018-11-04T21:30:25.659Z,31.43
2018-11-04T21:32:53.819Z,29.33
2018-11-04T21:35:22.045Z,31.60
2018-11-04T21:37:55.751Z,29.50
2018-11-04T21:40:23.230Z,29.23
2018-11-04T21:42:50.736Z,30.80
2018-11-04T21:45:18.058Z,30.17
2018-11-04T21:47:45.473Z,28.37
2018-11-04T21:50:13.956Z,28.87
2018-11-04T21:52:47.693Z,29.00
2018-11-04T21:55:21.571Z,27.43
2018-11-04T21:57:48.893Z,26.60
2018-11-04T22:00:17.677Z,26.00
2018-11-04T22:02:49.107Z,25.17
2018-11-04T22:05:18.167Z,23.53
2018-11-04T22:07:46.625Z,25.90
2018-11-04T22:10:14.913Z,25.27
2018-11-04T22:12:43.246Z,24.63
2018-11-04T22:15:10.990Z,24.77
2018-11-04T22:17:38.868Z,23.40
2018-11-04T22:20:07.261Z,23.07
2018-11-04T22:22:40.882Z,24.70
2018-11-04T22:25:09.978Z,23.20
2018-11-04T22:27:43.561Z,24.27
2018-11-04T22:30:11.822Z,23.17
2018-11-04T22:32:45.314Z,24.33
2018-11-04T22:35:12.679Z,23.57
2018-11-04T22:37:40.108Z,24.27
2018-11-04T22:40:08.718Z,23.13
2018-11-04T22:42:42.323Z,23.10
2018-11-04T22:45:10.830Z,21.70
2018-11-04T22:47:38.479Z,22.87
2018-11-04T22:50:10.725Z,24.40
2018-11-04T22:52:38.506Z,24.63
2018-11-04T22:55:07.938Z,24.13
2018-11-04T22:57:42.102Z,23.70
2018-11-04T23:00:16.100Z,23.33
2018-11-04T23:02:50.029Z,23.57
2018-11-04T23:05:23.300Z,22.93
2018-11-04T23:07:50.961Z,24.03
2018-11-04T23:10:18.352Z,22.60
2018-11-04T23:12:45.854Z,23.33
2018-11-04T23:15:13.357Z,23.00
2018-11-04T23:17:42.835Z,21.80
2018-11-04T23:20:10.212Z,22.60
2018-11-04T23:22:37.788Z,22.70
2018-11-04T23:25:06.745Z,22.63
2018-11-04T23:27:34.117Z,21.67
2018-11-04T23:30:02.789Z,23.47
2018-11-04T23:32:30.298Z,21.03
2018-11-04T23:34:58.785Z,21.70
2018-11-04T23:37:26.171Z,22.13
2018-11-04T23:39:53.589Z,21.47
2018-11-04T23:42:21.042Z,20.90
2018-11-04T23:44:54.601Z,22.00
2018-11-04T23:47:21.994Z,21.77
2018-11-04T23:49:49.351Z,21.27
2018-11-04T23:52:17.843Z,21.67
2018-11-04T23:54:51.441Z,22.50
2018-11-04T23:57:25.089Z,20.67
2018-11-04T23:59:52.635Z,20.63
